sensor_id;sensor_type;location;lat;lon;timestamp;P1;durP1;ratioP1;P2;durP2;ratioP2
22314;SDS011;11325;55.686;37.566;2022-07-11T00:00:36;13.62;;;8.18;;
22314;SDS011;11325;55.686;37.566;2022-07-11T00:03:04;15.63;;;8.50;;
22314;SDS011;11325;55.686;37.566;2022-07-11T00:05:32;14.73;;;8.63;;
22314;SDS011;11325;55.686;37.566;2022-07-11T00:08:01;13.80;;;8.55;;
22314;SDS011;11325;55.686;37.566;2022-07-11T00:10:29;20.05;;;10.53;;
22314;SDS011;11325;55.686;37.566;2022-07-11T00:12:57;19.15;;;10.50;;
22314;SDS011;11325;55.686;37.566;2022-07-11T00:15:25;13.32;;;8.85;;
22314;SDS011;11325;55.686;37.566;2022-07-11T00:17:53;15.98;;;8.38;;
22314;SDS011;11325;55.686;37.566;2022-07-11T00:20:21;17.10;;;9.38;;
22314;SDS011;11325;55.686;37.566;2022-07-11T00:22:49;13.20;;;8.23;;
22314;SDS011;11325;55.686;37.566;2022-07-11T00:25:17;13.35;;;8.65;;
22314;SDS011;11325;55.686;37.566;2022-07-11T00:27:45;12.65;;;8.10;;
22314;SDS011;11325;55.686;37.566;2022-07-11T00:30:14;10.43;;;8.20;;
22314;SDS011;11325;55.686;37.566;2022-07-11T00:32:43;14.50;;;7.80;;
22314;SDS011;11325;55.686;37.566;2022-07-11T00:35:11;14.30;;;8.13;;
22314;SDS011;11325;55.686;37.566;2022-07-11T00:37:39;11.38;;;7.75;;
22314;SDS011;11325;55.686;37.566;2022-07-11T00:40:07;10.43;;;7.35;;
22314;SDS011;11325;55.686;37.566;2022-07-11T00:42:36;11.30;;;7.15;;
22314;SDS011;11325;55.686;37.566;2022-07-11T00:45:05;15.55;;;8.20;;
22314;SDS011;11325;55.686;37.566;2022-07-11T00:47:33;14.68;;;7.62;;
22314;SDS011;11325;55.686;37.566;2022-07-11T00:50:01;12.07;;;7.87;;
22314;SDS011;11325;55.686;37.566;2022-07-11T00:52:29;11.65;;;7.75;;
22314;SDS011;11325;55.686;37.566;2022-07-11T00:54:58;11.80;;;6.65;;
22314;SDS011;11325;55.686;37.566;2022-07-11T00:57:26;9.35;;;6.05;;
22314;SDS011;11325;55.686;37.566;2022-07-11T00:59:54;11.83;;;6.35;;
22314;SDS011;11325;55.686;37.566;2022-07-11T01:02:22;12.07;;;6.42;;
22314;SDS011;11325;55.686;37.566;2022-07-11T01:04:52;11.93;;;6.40;;
22314;SDS011;11325;55.686;37.566;2022-07-11T01:07:20;10.58;;;6.03;;
22314;SDS011;11325;55.686;37.566;2022-07-11T01:09:49;10.50;;;5.50;;
22314;SDS011;11325;55.686;37.566;2022-07-11T01:12:18;9.65;;;6.28;;
22314;SDS011;11325;55.686;37.566;2022-07-11T01:14:52;7.62;;;5.50;;
22314;SDS011;11325;55.686;37.566;2022-07-11T01:17:21;12.70;;;6.85;;
22314;SDS011;11325;55.686;37.566;2022-07-11T01:19:49;8.95;;;6.83;;
22314;SDS011;11325;55.686;37.566;2022-07-11T01:22:18;10.48;;;7.30;;
22314;SDS011;11325;55.686;37.566;2022-07-11T01:24:46;10.65;;;7.30;;
22314;SDS011;11325;55.686;37.566;2022-07-11T01:27:15;12.13;;;7.45;;
22314;SDS011;11325;55.686;37.566;2022-07-11T01:29:44;22.07;;;7.00;;
22314;SDS011;11325;55.686;37.566;2022-07-11T01:32:12;13.55;;;7.20;;
22314;SDS011;11325;55.686;37.566;2022-07-11T01:34:41;14.00;;;7.40;;
22314;SDS011;11325;55.686;37.566;2022-07-11T01:37:09;12.45;;;6.97;;
22314;SDS011;11325;55.686;37.566;2022-07-11T01:39:37;14.00;;;7.95;;
22314;SDS011;11325;55.686;37.566;2022-07-11T01:42:05;7.12;;;6.42;;
22314;SDS011;11325;55.686;37.566;2022-07-11T01:44:33;9.00;;;6.42;;
22314;SDS011;11325;55.686;37.566;2022-07-11T01:47:01;9.90;;;6.53;;
22314;SDS011;11325;55.686;37.566;2022-07-11T01:49:29;11.83;;;7.00;;
22314;SDS011;11325;55.686;37.566;2022-07-11T01:51:57;17.20;;;6.90;;
22314;SDS011;11325;55.686;37.566;2022-07-11T01:54:25;8.43;;;6.70;;
22314;SDS011;11325;55.686;37.566;2022-07-11T01:56:53;9.60;;;6.15;;
22314;SDS011;11325;55.686;37.566;2022-07-11T01:59:21;10.05;;;5.65;;
22314;SDS011;11325;55.686;37.566;2022-07-11T02:01:49;13.22;;;6.85;;
22314;SDS011;11325;55.686;37.566;2022-07-11T02:04:17;11.83;;;6.87;;
22314;SDS011;11325;55.686;37.566;2022-07-11T02:06:46;11.10;;;6.65;;
22314;SDS011;11325;55.686;37.566;2022-07-11T02:09:14;10.13;;;6.75;;
22314;SDS011;11325;55.686;37.566;2022-07-11T02:11:42;8.63;;;6.75;;
22314;SDS011;11325;55.686;37.566;2022-07-11T02:14:10;19.30;;;7.05;;
22314;SDS011;11325;55.686;37.566;2022-07-11T02:16:39;11.83;;;6.72;;
22314;SDS011;11325;55.686;37.566;2022-07-11T02:19:07;12.98;;;6.35;;
22314;SDS011;11325;55.686;37.566;2022-07-11T02:21:35;10.10;;;6.10;;
22314;SDS011;11325;55.686;37.566;2022-07-11T02:24:04;11.68;;;6.58;;
22314;SDS011;11325;55.686;37.566;2022-07-11T02:26:32;6.65;;;5.97;;
22314;SDS011;11325;55.686;37.566;2022-07-11T02:29:00;11.30;;;6.00;;
22314;SDS011;11325;55.686;37.566;2022-07-11T02:31:28;7.35;;;5.75;;
22314;SDS011;11325;55.686;37.566;2022-07-11T02:33:56;8.93;;;6.05;;
22314;SDS011;11325;55.686;37.566;2022-07-11T02:36:24;15.13;;;6.47;;
22314;SDS011;11325;55.686;37.566;2022-07-11T02:38:52;9.15;;;7.10;;
22314;SDS011;11325;55.686;37.566;2022-07-11T02:41:20;7.70;;;6.35;;
22314;SDS011;11325;55.686;37.566;2022-07-11T02:43:48;12.55;;;6.87;;
22314;SDS011;11325;55.686;37.566;2022-07-11T02:46:16;14.03;;;6.75;;
22314;SDS011;11325;55.686;37.566;2022-07-11T02:48:44;12.58;;;6.62;;
22314;SDS011;11325;55.686;37.566;2022-07-11T02:51:13;7.12;;;6.22;;
22314;SDS011;11325;55.686;37.566;2022-07-11T02:53:41;9.38;;;6.40;;
22314;SDS011;11325;55.686;37.566;2022-07-11T02:56:09;11.18;;;6.17;;
22314;SDS011;11325;55.686;37.566;2022-07-11T02:58:37;12.25;;;6.80;;
22314;SDS011;11325;55.686;37.566;2022-07-11T03:01:05;13.58;;;6.10;;
22314;SDS011;11325;55.686;37.566;2022-07-11T03:03:33;10.15;;;6.15;;
22314;SDS011;11325;55.686;37.566;2022-07-11T03:06:01;11.35;;;6.10;;
22314;SDS011;11325;55.686;37.566;2022-07-11T03:08:29;9.05;;;6.92;;
22314;SDS011;11325;55.686;37.566;2022-07-11T03:10:57;9.28;;;6.42;;
22314;SDS011;11325;55.686;37.566;2022-07-11T03:13:25;11.28;;;6.97;;
22314;SDS011;11325;55.686;37.566;2022-07-11T03:15:53;7.22;;;5.92;;
22314;SDS011;11325;55.686;37.566;2022-07-11T03:18:21;9.50;;;6.62;;
22314;SDS011;11325;55.686;37.566;2022-07-11T03:20:49;9.55;;;6.47;;
22314;SDS011;11325;55.686;37.566;2022-07-11T03:23:17;10.40;;;7.35;;
22314;SDS011;11325;55.686;37.566;2022-07-11T03:25:45;7.10;;;6.35;;
22314;SDS011;11325;55.686;37.566;2022-07-11T03:28:13;11.93;;;6.35;;
22314;SDS011;11325;55.686;37.566;2022-07-11T03:30:42;13.03;;;6.40;;
22314;SDS011;11325;55.686;37.566;2022-07-11T03:33:12;9.93;;;5.90;;
22314;SDS011;11325;55.686;37.566;2022-07-11T03:35:39;10.78;;;6.67;;
22314;SDS011;11325;55.686;37.566;2022-07-11T03:38:11;8.25;;;5.75;;
22314;SDS011;11325;55.686;37.566;2022-07-11T03:40:39;11.40;;;6.75;;
22314;SDS011;11325;55.686;37.566;2022-07-11T03:43:07;8.25;;;6.12;;
22314;SDS011;11325;55.686;37.566;2022-07-11T03:45:35;15.95;;;7.55;;
22314;SDS011;11325;55.686;37.566;2022-07-11T03:48:04;6.90;;;6.20;;
22314;SDS011;11325;55.686;37.566;2022-07-11T03:50:32;8.65;;;6.87;;
22314;SDS011;11325;55.686;37.566;2022-07-11T03:53:00;7.67;;;6.83;;
22314;SDS011;11325;55.686;37.566;2022-07-11T03:55:29;16.67;;;6.92;;
22314;SDS011;11325;55.686;37.566;2022-07-11T03:57:58;14.18;;;7.58;;
22314;SDS011;11325;55.686;37.566;2022-07-11T04:00:26;13.65;;;7.20;;
22314;SDS011;11325;55.686;37.566;2022-07-11T04:02:54;11.55;;;6.83;;
22314;SDS011;11325;55.686;37.566;2022-07-11T04:05:24;9.43;;;6.62;;
22314;SDS011;11325;55.686;37.566;2022-07-11T04:07:52;10.25;;;7.28;;
22314;SDS011;11325;55.686;37.566;2022-07-11T04:10:20;10.23;;;6.62;;
22314;SDS011;11325;55.686;37.566;2022-07-11T04:12:48;14.20;;;7.35;;
22314;SDS011;11325;55.686;37.566;2022-07-11T04:15:18;14.83;;;6.87;;
22314;SDS011;11325;55.686;37.566;2022-07-11T04:17:46;13.40;;;7.12;;
22314;SDS011;11325;55.686;37.566;2022-07-11T04:20:14;8.43;;;6.28;;
22314;SDS011;11325;55.686;37.566;2022-07-11T04:22:42;14.58;;;7.03;;
22314;SDS011;11325;55.686;37.566;2022-07-11T04:25:11;12.70;;;7.40;;
22314;SDS011;11325;55.686;37.566;2022-07-11T04:27:39;12.10;;;7.55;;
22314;SDS011;11325;55.686;37.566;2022-07-11T04:30:07;13.62;;;6.80;;
22314;SDS011;11325;55.686;37.566;2022-07-11T04:32:35;13.88;;;7.37;;
22314;SDS011;11325;55.686;37.566;2022-07-11T04:35:03;10.75;;;7.47;;
22314;SDS011;11325;55.686;37.566;2022-07-11T04:37:31;13.00;;;7.00;;
22314;SDS011;11325;55.686;37.566;2022-07-11T04:39:59;10.48;;;7.17;;
22314;SDS011;11325;55.686;37.566;2022-07-11T04:42:29;8.58;;;6.62;;
22314;SDS011;11325;55.686;37.566;2022-07-11T04:44:57;10.28;;;6.65;;
22314;SDS011;11325;55.686;37.566;2022-07-11T04:47:25;13.20;;;7.28;;
22314;SDS011;11325;55.686;37.566;2022-07-11T04:49:53;9.03;;;7.45;;
22314;SDS011;11325;55.686;37.566;2022-07-11T04:52:21;13.38;;;7.58;;
22314;SDS011;11325;55.686;37.566;2022-07-11T04:54:51;15.63;;;7.45;;
22314;SDS011;11325;55.686;37.566;2022-07-11T04:57:20;9.33;;;7.12;;
22314;SDS011;11325;55.686;37.566;2022-07-11T04:59:48;17.95;;;7.50;;
22314;SDS011;11325;55.686;37.566;2022-07-11T05:02:16;8.18;;;7.00;;
22314;SDS011;11325;55.686;37.566;2022-07-11T05:04:44;10.68;;;6.92;;
22314;SDS011;11325;55.686;37.566;2022-07-11T05:07:12;12.60;;;6.67;;
22314;SDS011;11325;55.686;37.566;2022-07-11T05:09:42;11.68;;;7.55;;
22314;SDS011;11325;55.686;37.566;2022-07-11T05:12:09;10.08;;;6.55;;
22314;SDS011;11325;55.686;37.566;2022-07-11T05:14:38;10.35;;;6.50;;
22314;SDS011;11325;55.686;37.566;2022-07-11T05:17:06;8.15;;;7.35;;
22314;SDS011;11325;55.686;37.566;2022-07-11T05:19:34;10.13;;;6.42;;
22314;SDS011;11325;55.686;37.566;2022-07-11T05:22:02;9.53;;;7.25;;
22314;SDS011;11325;55.686;37.566;2022-07-11T05:24:30;14.20;;;7.35;;
22314;SDS011;11325;55.686;37.566;2022-07-11T05:26:58;12.75;;;7.78;;
22314;SDS011;11325;55.686;37.566;2022-07-11T05:29:26;11.78;;;7.15;;
22314;SDS011;11325;55.686;37.566;2022-07-11T05:31:54;12.78;;;6.60;;
22314;SDS011;11325;55.686;37.566;2022-07-11T05:34:22;13.70;;;7.03;;
22314;SDS011;11325;55.686;37.566;2022-07-11T05:36:52;8.63;;;6.67;;
22314;SDS011;11325;55.686;37.566;2022-07-11T05:39:20;10.53;;;6.95;;
22314;SDS011;11325;55.686;37.566;2022-07-11T05:41:48;11.83;;;7.67;;
22314;SDS011;11325;55.686;37.566;2022-07-11T05:44:18;7.42;;;6.37;;
22314;SDS011;11325;55.686;37.566;2022-07-11T05:46:46;10.50;;;6.60;;
22314;SDS011;11325;55.686;37.566;2022-07-11T05:49:14;17.75;;;7.37;;
22314;SDS011;11325;55.686;37.566;2022-07-11T05:51:42;10.75;;;6.28;;
22314;SDS011;11325;55.686;37.566;2022-07-11T05:54:10;9.38;;;6.97;;
22314;SDS011;11325;55.686;37.566;2022-07-11T05:56:38;8.90;;;6.42;;
22314;SDS011;11325;55.686;37.566;2022-07-11T05:59:06;10.40;;;6.30;;
22314;SDS011;11325;55.686;37.566;2022-07-11T06:01:35;8.03;;;5.58;;
22314;SDS011;11325;55.686;37.566;2022-07-11T06:04:03;8.13;;;5.65;;
22314;SDS011;11325;55.686;37.566;2022-07-11T06:06:31;13.60;;;6.35;;
22314;SDS011;11325;55.686;37.566;2022-07-11T06:09:00;6.15;;;5.55;;
22314;SDS011;11325;55.686;37.566;2022-07-11T06:11:28;12.73;;;7.42;;
22314;SDS011;11325;55.686;37.566;2022-07-11T06:14:02;11.73;;;6.08;;
22314;SDS011;11325;55.686;37.566;2022-07-11T06:16:27;8.10;;;5.53;;
22314;SDS011;11325;55.686;37.566;2022-07-11T06:18:57;12.95;;;6.20;;
22314;SDS011;11325;55.686;37.566;2022-07-11T06:21:25;10.80;;;5.72;;
22314;SDS011;11325;55.686;37.566;2022-07-11T06:23:54;9.05;;;6.15;;
22314;SDS011;11325;55.686;37.566;2022-07-11T06:26:22;8.95;;;5.75;;
22314;SDS011;11325;55.686;37.566;2022-07-11T06:28:50;7.47;;;5.92;;
22314;SDS011;11325;55.686;37.566;2022-07-11T06:31:18;10.32;;;6.50;;
22314;SDS011;11325;55.686;37.566;2022-07-11T06:33:47;14.33;;;6.55;;
22314;SDS011;11325;55.686;37.566;2022-07-11T06:36:16;11.50;;;6.55;;
22314;SDS011;11325;55.686;37.566;2022-07-11T06:38:46;11.68;;;6.85;;
22314;SDS011;11325;55.686;37.566;2022-07-11T06:41:14;16.97;;;6.15;;
22314;SDS011;11325;55.686;37.566;2022-07-11T06:43:42;13.38;;;7.10;;
22314;SDS011;11325;55.686;37.566;2022-07-11T06:46:10;16.85;;;6.62;;
22314;SDS011;11325;55.686;37.566;2022-07-11T06:48:38;13.20;;;5.87;;
22314;SDS011;11325;55.686;37.566;2022-07-11T06:51:06;14.60;;;6.40;;
22314;SDS011;11325;55.686;37.566;2022-07-11T06:53:34;11.63;;;6.30;;
22314;SDS011;11325;55.686;37.566;2022-07-11T06:56:02;13.22;;;6.15;;
22314;SDS011;11325;55.686;37.566;2022-07-11T06:58:30;12.23;;;6.08;;
22314;SDS011;11325;55.686;37.566;2022-07-11T07:01:05;9.58;;;6.00;;
22314;SDS011;11325;55.686;37.566;2022-07-11T07:03:29;11.88;;;7.40;;
22314;SDS011;11325;55.686;37.566;2022-07-11T07:05:58;13.95;;;7.35;;
22314;SDS011;11325;55.686;37.566;2022-07-11T07:08:26;6.55;;;5.90;;
22314;SDS011;11325;55.686;37.566;2022-07-11T07:10:56;10.98;;;7.35;;
22314;SDS011;11325;55.686;37.566;2022-07-11T07:13:25;8.78;;;6.97;;
22314;SDS011;11325;55.686;37.566;2022-07-11T07:15:54;19.60;;;7.10;;
22314;SDS011;11325;55.686;37.566;2022-07-11T07:18:24;7.03;;;6.35;;
22314;SDS011;11325;55.686;37.566;2022-07-11T07:20:52;9.90;;;6.55;;
22314;SDS011;11325;55.686;37.566;2022-07-11T07:23:20;7.55;;;6.80;;
22314;SDS011;11325;55.686;37.566;2022-07-11T07:25:48;16.95;;;6.35;;
22314;SDS011;11325;55.686;37.566;2022-07-11T07:28:16;9.28;;;6.80;;
22314;SDS011;11325;55.686;37.566;2022-07-11T07:30:44;11.22;;;6.75;;
22314;SDS011;11325;55.686;37.566;2022-07-11T07:33:14;15.48;;;6.78;;
22314;SDS011;11325;55.686;37.566;2022-07-11T07:35:42;8.33;;;6.53;;
22314;SDS011;11325;55.686;37.566;2022-07-11T07:38:10;7.08;;;6.20;;
22314;SDS011;11325;55.686;37.566;2022-07-11T07:40:39;10.43;;;6.80;;
22314;SDS011;11325;55.686;37.566;2022-07-11T07:43:07;10.40;;;6.45;;
22314;SDS011;11325;55.686;37.566;2022-07-11T07:45:36;10.30;;;6.45;;
22314;SDS011;11325;55.686;37.566;2022-07-11T07:48:06;8.85;;;7.08;;
22314;SDS011;11325;55.686;37.566;2022-07-11T07:50:33;10.90;;;6.45;;
22314;SDS011;11325;55.686;37.566;2022-07-11T07:53:01;9.18;;;6.17;;
22314;SDS011;11325;55.686;37.566;2022-07-11T07:55:29;10.10;;;6.10;;
22314;SDS011;11325;55.686;37.566;2022-07-11T07:57:57;7.62;;;6.28;;
22314;SDS011;11325;55.686;37.566;2022-07-11T08:00:26;15.08;;;8.40;;
22314;SDS011;11325;55.686;37.566;2022-07-11T08:03:11;16.25;;;9.08;;
22314;SDS011;11325;55.686;37.566;2022-07-11T08:05:39;13.80;;;7.97;;
22314;SDS011;11325;55.686;37.566;2022-07-11T08:08:07;10.58;;;6.75;;
22314;SDS011;11325;55.686;37.566;2022-07-11T08:10:36;9.13;;;6.75;;
22314;SDS011;11325;55.686;37.566;2022-07-11T08:13:04;15.90;;;6.53;;
22314;SDS011;11325;55.686;37.566;2022-07-11T08:15:32;11.83;;;6.03;;
22314;SDS011;11325;55.686;37.566;2022-07-11T08:18:00;16.15;;;7.60;;
22314;SDS011;11325;55.686;37.566;2022-07-11T08:20:28;11.18;;;5.47;;
22314;SDS011;11325;55.686;37.566;2022-07-11T08:23:02;9.13;;;5.83;;
22314;SDS011;11325;55.686;37.566;2022-07-11T08:25:34;10.43;;;5.85;;
22314;SDS011;11325;55.686;37.566;2022-07-11T08:28:02;7.35;;;5.87;;
22314;SDS011;11325;55.686;37.566;2022-07-11T08:30:30;7.47;;;5.47;;
22314;SDS011;11325;55.686;37.566;2022-07-11T08:32:58;7.05;;;5.60;;
22314;SDS011;11325;55.686;37.566;2022-07-11T08:35:26;6.40;;;5.35;;
22314;SDS011;11325;55.686;37.566;2022-07-11T08:37:54;11.00;;;5.00;;
22314;SDS011;11325;55.686;37.566;2022-07-11T08:40:22;5.92;;;5.33;;
22314;SDS011;11325;55.686;37.566;2022-07-11T08:42:51;12.75;;;5.22;;
22314;SDS011;11325;55.686;37.566;2022-07-11T08:45:19;9.80;;;5.30;;
22314;SDS011;11325;55.686;37.566;2022-07-11T08:47:49;6.80;;;4.70;;
22314;SDS011;11325;55.686;37.566;2022-07-11T08:50:18;5.42;;;4.92;;
22314;SDS011;11325;55.686;37.566;2022-07-11T08:52:48;9.80;;;5.08;;
22314;SDS011;11325;55.686;37.566;2022-07-11T08:55:16;5.53;;;4.92;;
22314;SDS011;11325;55.686;37.566;2022-07-11T08:57:44;6.55;;;5.22;;
22314;SDS011;11325;55.686;37.566;2022-07-11T09:00:13;5.30;;;4.78;;
22314;SDS011;11325;55.686;37.566;2022-07-11T09:02:42;9.80;;;4.97;;
22314;SDS011;11325;55.686;37.566;2022-07-11T09:05:11;8.48;;;5.17;;
22314;SDS011;11325;55.686;37.566;2022-07-11T09:07:42;6.60;;;5.08;;
22314;SDS011;11325;55.686;37.566;2022-07-11T09:10:10;9.43;;;4.72;;
22314;SDS011;11325;55.686;37.566;2022-07-11T09:15:40;10.78;;;5.08;;
22314;SDS011;11325;55.686;37.566;2022-07-11T09:20:54;10.28;;;5.17;;
22314;SDS011;11325;55.686;37.566;2022-07-11T09:23:42;10.58;;;5.08;;
22314;SDS011;11325;55.686;37.566;2022-07-11T09:26:31;5.12;;;4.62;;
22314;SDS011;11325;55.686;37.566;2022-07-11T09:29:00;7.15;;;5.08;;
22314;SDS011;11325;55.686;37.566;2022-07-11T09:31:28;5.65;;;5.05;;
22314;SDS011;11325;55.686;37.566;2022-07-11T09:34:08;12.03;;;4.80;;
22314;SDS011;11325;55.686;37.566;2022-07-11T09:39:14;7.37;;;4.62;;
22314;SDS011;11325;55.686;37.566;2022-07-11T09:41:43;6.12;;;4.85;;
22314;SDS011;11325;55.686;37.566;2022-07-11T09:44:19;5.17;;;4.55;;
22314;SDS011;11325;55.686;37.566;2022-07-11T09:46:48;7.60;;;4.50;;
22314;SDS011;11325;55.686;37.566;2022-07-11T09:49:17;7.97;;;4.45;;
22314;SDS011;11325;55.686;37.566;2022-07-11T09:51:45;5.65;;;4.62;;
22314;SDS011;11325;55.686;37.566;2022-07-11T09:54:13;6.12;;;4.42;;
22314;SDS011;11325;55.686;37.566;2022-07-11T09:56:42;5.70;;;4.60;;
22314;SDS011;11325;55.686;37.566;2022-07-11T09:59:11;6.55;;;4.80;;
22314;SDS011;11325;55.686;37.566;2022-07-11T10:01:40;9.25;;;4.55;;
22314;SDS011;11325;55.686;37.566;2022-07-11T10:04:08;5.83;;;4.45;;
22314;SDS011;11325;55.686;37.566;2022-07-11T10:06:38;8.15;;;4.40;;
22314;SDS011;11325;55.686;37.566;2022-07-11T10:09:06;9.58;;;4.60;;
22314;SDS011;11325;55.686;37.566;2022-07-11T10:11:34;7.12;;;5.00;;
22314;SDS011;11325;55.686;37.566;2022-07-11T10:14:05;11.75;;;4.55;;
22314;SDS011;11325;55.686;37.566;2022-07-11T10:16:37;9.48;;;4.60;;
22314;SDS011;11325;55.686;37.566;2022-07-11T10:19:12;15.68;;;4.28;;
22314;SDS011;11325;55.686;37.566;2022-07-11T10:21:43;7.33;;;4.35;;
22314;SDS011;11325;55.686;37.566;2022-07-11T10:24:55;4.97;;;4.50;;
22314;SDS011;11325;55.686;37.566;2022-07-11T10:29:24;6.05;;;4.25;;
22314;SDS011;11325;55.686;37.566;2022-07-11T10:32:05;4.92;;;4.35;;
22314;SDS011;11325;55.686;37.566;2022-07-11T10:34:34;11.12;;;4.30;;
22314;SDS011;11325;55.686;37.566;2022-07-11T10:37:03;9.98;;;4.22;;
22314;SDS011;11325;55.686;37.566;2022-07-11T10:39:32;4.90;;;4.22;;
22314;SDS011;11325;55.686;37.566;2022-07-11T10:42:02;12.47;;;4.55;;
22314;SDS011;11325;55.686;37.566;2022-07-11T10:44:50;13.48;;;5.00;;
22314;SDS011;11325;55.686;37.566;2022-07-11T10:50:10;7.17;;;5.30;;
22314;SDS011;11325;55.686;37.566;2022-07-11T10:52:37;5.10;;;4.62;;
22314;SDS011;11325;55.686;37.566;2022-07-11T10:55:12;6.83;;;4.75;;
22314;SDS011;11325;55.686;37.566;2022-07-11T11:00:23;7.47;;;4.78;;
22314;SDS011;11325;55.686;37.566;2022-07-11T11:05:40;10.08;;;4.45;;
22314;SDS011;11325;55.686;37.566;2022-07-11T11:10:56;4.97;;;4.12;;
22314;SDS011;11325;55.686;37.566;2022-07-11T11:13:24;6.25;;;4.65;;
22314;SDS011;11325;55.686;37.566;2022-07-11T11:15:54;6.97;;;4.80;;
22314;SDS011;11325;55.686;37.566;2022-07-11T11:23:30;6.10;;;4.53;;
22314;SDS011;11325;55.686;37.566;2022-07-11T11:26:11;17.85;;;4.80;;
22314;SDS011;11325;55.686;37.566;2022-07-11T11:28:55;8.65;;;4.70;;
22314;SDS011;11325;55.686;37.566;2022-07-11T11:31:24;12.28;;;4.00;;
22314;SDS011;11325;55.686;37.566;2022-07-11T11:33:53;11.40;;;4.25;;
22314;SDS011;11325;55.686;37.566;2022-07-11T11:36:22;10.32;;;4.62;;
22314;SDS011;11325;55.686;37.566;2022-07-11T11:38:50;9.95;;;4.62;;
22314;SDS011;11325;55.686;37.566;2022-07-11T11:41:22;8.00;;;4.83;;
22314;SDS011;11325;55.686;37.566;2022-07-11T11:43:51;7.95;;;4.33;;
22314;SDS011;11325;55.686;37.566;2022-07-11T11:46:30;11.22;;;4.30;;
22314;SDS011;11325;55.686;37.566;2022-07-11T11:48:49;7.00;;;4.15;;
22314;SDS011;11325;55.686;37.566;2022-07-11T11:51:19;15.20;;;4.30;;
22314;SDS011;11325;55.686;37.566;2022-07-11T11:53:48;11.60;;;4.62;;
22314;SDS011;11325;55.686;37.566;2022-07-11T11:56:18;10.65;;;4.65;;
22314;SDS011;11325;55.686;37.566;2022-07-11T11:58:48;10.13;;;4.30;;
22314;SDS011;11325;55.686;37.566;2022-07-11T12:01:25;6.85;;;4.33;;
22314;SDS011;11325;55.686;37.566;2022-07-11T12:03:54;9.40;;;4.28;;
22314;SDS011;11325;55.686;37.566;2022-07-11T12:06:24;5.50;;;4.10;;
22314;SDS011;11325;55.686;37.566;2022-07-11T12:08:59;15.63;;;4.17;;
22314;SDS011;11325;55.686;37.566;2022-07-11T12:11:29;8.63;;;4.62;;
22314;SDS011;11325;55.686;37.566;2022-07-11T12:13:58;9.58;;;4.28;;
22314;SDS011;11325;55.686;37.566;2022-07-11T12:16:26;6.00;;;4.72;;
22314;SDS011;11325;55.686;37.566;2022-07-11T12:19:09;14.40;;;5.05;;
22314;SDS011;11325;55.686;37.566;2022-07-11T12:21:39;6.40;;;4.08;;
22314;SDS011;11325;55.686;37.566;2022-07-11T12:24:09;8.05;;;4.28;;
22314;SDS011;11325;55.686;37.566;2022-07-11T12:26:38;11.55;;;4.08;;
22314;SDS011;11325;55.686;37.566;2022-07-11T12:29:13;11.63;;;4.28;;
22314;SDS011;11325;55.686;37.566;2022-07-11T12:31:50;8.03;;;3.33;;
22314;SDS011;11325;55.686;37.566;2022-07-11T12:34:19;12.93;;;4.30;;
22314;SDS011;11325;55.686;37.566;2022-07-11T12:36:47;12.60;;;4.17;;
22314;SDS011;11325;55.686;37.566;2022-07-11T12:39:25;6.22;;;4.08;;
22314;SDS011;11325;55.686;37.566;2022-07-11T12:41:55;4.42;;;3.70;;
22314;SDS011;11325;55.686;37.566;2022-07-11T12:44:23;12.47;;;4.25;;
22314;SDS011;11325;55.686;37.566;2022-07-11T12:47:10;8.58;;;4.15;;
22314;SDS011;11325;55.686;37.566;2022-07-11T12:49:40;10.28;;;4.05;;
22314;SDS011;11325;55.686;37.566;2022-07-11T12:52:13;12.53;;;3.98;;
22314;SDS011;11325;55.686;37.566;2022-07-11T12:54:41;13.70;;;4.47;;
22314;SDS011;11325;55.686;37.566;2022-07-11T12:57:10;6.47;;;3.67;;
22314;SDS011;11325;55.686;37.566;2022-07-11T12:59:39;12.75;;;4.28;;
22314;SDS011;11325;55.686;37.566;2022-07-11T13:02:08;9.33;;;4.50;;
22314;SDS011;11325;55.686;37.566;2022-07-11T13:04:38;11.18;;;3.72;;
22314;SDS011;11325;55.686;37.566;2022-07-11T13:10:16;10.43;;;3.87;;
22314;SDS011;11325;55.686;37.566;2022-07-11T13:12:45;10.43;;;4.08;;
22314;SDS011;11325;55.686;37.566;2022-07-11T13:15:13;10.68;;;4.15;;
22314;SDS011;11325;55.686;37.566;2022-07-11T13:17:46;9.68;;;3.87;;
22314;SDS011;11325;55.686;37.566;2022-07-11T13:20:16;6.58;;;3.40;;
22314;SDS011;11325;55.686;37.566;2022-07-11T13:22:44;11.25;;;3.80;;
22314;SDS011;11325;55.686;37.566;2022-07-11T13:25:13;8.45;;;4.10;;
22314;SDS011;11325;55.686;37.566;2022-07-11T13:27:42;16.48;;;4.47;;
22314;SDS011;11325;55.686;37.566;2022-07-11T13:30:11;8.45;;;4.30;;
22314;SDS011;11325;55.686;37.566;2022-07-11T13:32:41;14.00;;;5.33;;
22314;SDS011;11325;55.686;37.566;2022-07-11T13:35:09;7.37;;;4.08;;
22314;SDS011;11325;55.686;37.566;2022-07-11T13:37:38;7.42;;;4.17;;
22314;SDS011;11325;55.686;37.566;2022-07-11T13:40:08;10.75;;;3.85;;
22314;SDS011;11325;55.686;37.566;2022-07-11T13:42:38;12.43;;;4.20;;
22314;SDS011;11325;55.686;37.566;2022-07-11T13:45:07;13.75;;;3.83;;
22314;SDS011;11325;55.686;37.566;2022-07-11T13:47:35;12.65;;;4.30;;
22314;SDS011;11325;55.686;37.566;2022-07-11T13:50:04;13.58;;;4.50;;
22314;SDS011;11325;55.686;37.566;2022-07-11T13:52:31;10.13;;;3.98;;
22314;SDS011;11325;55.686;37.566;2022-07-11T13:54:59;11.10;;;3.90;;
22314;SDS011;11325;55.686;37.566;2022-07-11T13:57:29;12.25;;;4.60;;
22314;SDS011;11325;55.686;37.566;2022-07-11T13:59:57;8.25;;;3.90;;
22314;SDS011;11325;55.686;37.566;2022-07-11T14:02:25;9.08;;;4.15;;
22314;SDS011;11325;55.686;37.566;2022-07-11T14:04:53;10.25;;;3.87;;
22314;SDS011;11325;55.686;37.566;2022-07-11T14:07:21;13.32;;;4.05;;
22314;SDS011;11325;55.686;37.566;2022-07-11T14:09:49;7.45;;;3.87;;
22314;SDS011;11325;55.686;37.566;2022-07-11T14:12:17;13.25;;;4.50;;
22314;SDS011;11325;55.686;37.566;2022-07-11T14:14:46;5.47;;;4.20;;
22314;SDS011;11325;55.686;37.566;2022-07-11T14:17:14;11.80;;;3.87;;
22314;SDS011;11325;55.686;37.566;2022-07-11T14:19:42;10.23;;;3.70;;
22314;SDS011;11325;55.686;37.566;2022-07-11T14:22:10;14.45;;;3.62;;
22314;SDS011;11325;55.686;37.566;2022-07-11T14:24:38;5.72;;;3.60;;
22314;SDS011;11325;55.686;37.566;2022-07-11T14:27:06;9.75;;;4.08;;
22314;SDS011;11325;55.686;37.566;2022-07-11T14:29:37;11.70;;;3.60;;
22314;SDS011;11325;55.686;37.566;2022-07-11T14:32:04;8.38;;;3.30;;
22314;SDS011;11325;55.686;37.566;2022-07-11T14:34:32;12.13;;;3.80;;
22314;SDS011;11325;55.686;37.566;2022-07-11T14:37:01;7.37;;;3.55;;
22314;SDS011;11325;55.686;37.566;2022-07-11T14:39:31;4.35;;;3.70;;
22314;SDS011;11325;55.686;37.566;2022-07-11T14:42:00;9.45;;;3.42;;
22314;SDS011;11325;55.686;37.566;2022-07-11T14:44:28;6.90;;;3.92;;
22314;SDS011;11325;55.686;37.566;2022-07-11T14:46:56;10.60;;;4.62;;
22314;SDS011;11325;55.686;37.566;2022-07-11T14:49:25;12.00;;;4.22;;
22314;SDS011;11325;55.686;37.566;2022-07-11T14:51:53;7.60;;;4.20;;
22314;SDS011;11325;55.686;37.566;2022-07-11T14:54:21;8.15;;;3.85;;
22314;SDS011;11325;55.686;37.566;2022-07-11T14:56:49;8.20;;;3.65;;
22314;SDS011;11325;55.686;37.566;2022-07-11T14:59:17;10.00;;;3.67;;
22314;SDS011;11325;55.686;37.566;2022-07-11T15:01:45;10.93;;;3.77;;
22314;SDS011;11325;55.686;37.566;2022-07-11T15:04:13;11.73;;;3.60;;
22314;SDS011;11325;55.686;37.566;2022-07-11T15:06:43;4.70;;;3.90;;